createdAt,value
2018-08-28T00:01:24.267Z,9.93
2018-08-28T00:03:52.949Z,5.50
2018-08-28T00:06:21.091Z,8.83
2018-08-28T00:08:49.514Z,5.20
2018-08-28T00:11:17.797Z,5.93
2018-08-28T00:13:45.942Z,4.70
2018-08-28T00:16:14.062Z,4.20
2018-08-28T00:18:42.198Z,8.00
2018-08-28T00:21:10.326Z,6.50
2018-08-28T00:23:38.677Z,4.53
2018-08-28T00:26:06.796Z,8.60
2018-08-28T00:28:34.910Z,6.60
2018-08-28T00:31:03.031Z,8.00
2018-08-28T00:33:31.142Z,8.77
2018-08-28T00:35:59.257Z,9.57
2018-08-28T00:38:27.372Z,4.63
2018-08-28T00:40:55.490Z,4.77
2018-08-28T00:43:23.603Z,7.40
2018-08-28T00:45:51.715Z,7.10
2018-08-28T00:48:20.067Z,5.80
2018-08-28T00:50:48.169Z,6.23
2018-08-28T00:53:16.286Z,9.93
2018-08-28T00:55:44.386Z,6.20
2018-08-28T00:58:12.511Z,9.40
2018-08-28T01:00:40.615Z,7.10
2018-08-28T01:03:08.726Z,7.60
2018-08-28T01:05:36.829Z,5.13
2018-08-28T01:08:04.945Z,9.07
2018-08-28T01:10:33.078Z,9.47
2018-08-28T01:13:01.272Z,10.87
2018-08-28T01:15:29.363Z,8.43
2018-08-28T01:17:57.484Z,8.30
2018-08-28T01:20:25.593Z,6.03
2018-08-28T01:22:53.709Z,7.93
2018-08-28T01:25:21.829Z,7.60
2018-08-28T01:27:49.957Z,6.13
2018-08-28T01:30:22.403Z,6.87
2018-08-28T01:32:50.523Z,7.63
2018-08-28T01:35:18.630Z,8.27
2018-08-28T01:37:46.765Z,9.43
2018-08-28T01:40:14.871Z,7.73
2018-08-28T01:42:42.991Z,9.33
2018-08-28T01:45:11.097Z,9.43
2018-08-28T01:47:39.206Z,8.00
2018-08-28T01:50:07.315Z,8.30
2018-08-28T01:52:35.451Z,7.00
2018-08-28T01:55:03.559Z,5.63
2018-08-28T01:57:31.665Z,11.00
2018-08-28T01:59:59.970Z,11.20
2018-08-28T02:02:28.185Z,8.87
2018-08-28T02:04:56.298Z,11.23
2018-08-28T02:07:24.418Z,9.40
2018-08-28T02:09:52.571Z,9.60
2018-08-28T02:12:20.872Z,7.20
2018-08-28T02:14:48.973Z,8.77
2018-08-28T02:17:17.089Z,8.67
2018-08-28T02:19:45.210Z,10.40
2018-08-28T02:22:13.473Z,13.80
2018-08-28T02:24:41.595Z,10.23
2018-08-28T02:27:09.718Z,7.80
2018-08-28T02:29:37.833Z,10.70
2018-08-28T02:32:05.966Z,9.50
2018-08-28T02:34:34.082Z,9.30
2018-08-28T02:37:02.204Z,12.70
2018-08-28T02:39:30.310Z,11.57
2018-08-28T02:41:58.432Z,13.40
2018-08-28T02:44:26.542Z,9.63
2018-08-28T02:46:54.715Z,9.17
2018-08-28T02:49:22.829Z,12.97
2018-08-28T02:51:50.958Z,13.87
2018-08-28T02:54:19.154Z,12.47
2018-08-28T02:56:47.280Z,15.53
2018-08-28T02:59:15.390Z,10.20
2018-08-28T03:01:43.514Z,11.97
2018-08-28T03:04:11.626Z,12.37
2018-08-28T03:06:39.738Z,15.37
2018-08-28T03:09:08.137Z,11.17
2018-08-28T03:11:36.286Z,12.37
2018-08-28T03:14:04.386Z,14.27
2018-08-28T03:16:32.506Z,13.83
2018-08-28T03:19:00.651Z,10.40
2018-08-28T03:21:28.777Z,16.37
2018-08-28T03:23:56.986Z,12.37
2018-08-28T03:26:25.099Z,11.43
2018-08-28T03:28:53.235Z,13.63
2018-08-28T03:31:21.345Z,17.07
2018-08-28T03:33:49.482Z,12.17
2018-08-28T03:36:17.585Z,12.33
2018-08-28T03:38:45.723Z,15.60
2018-08-28T03:41:13.863Z,16.03
2018-08-28T03:43:42.027Z,14.47
2018-08-28T03:46:10.139Z,18.23
2018-08-28T03:48:38.254Z,14.90
2018-08-28T03:51:07.061Z,12.80
2018-08-28T03:53:35.179Z,16.33
2018-08-28T03:56:03.430Z,15.30
2018-08-28T03:58:31.613Z,14.03
2018-08-28T04:00:59.714Z,14.13
2018-08-28T04:03:27.838Z,15.00
2018-08-28T04:05:55.954Z,13.40
2018-08-28T04:08:24.073Z,15.30
2018-08-28T04:10:52.182Z,11.70
2018-08-28T04:13:20.303Z,12.13
2018-08-28T04:15:48.418Z,13.90
2018-08-28T04:18:16.542Z,10.30
2018-08-28T04:20:44.654Z,13.60
2018-08-28T04:23:12.786Z,11.83
2018-08-28T04:25:40.911Z,13.00
2018-08-28T04:28:09.023Z,11.97
2018-08-28T04:30:37.375Z,16.10
2018-08-28T04:33:05.681Z,19.73
2018-08-28T04:35:33.810Z,13.20
2018-08-28T04:38:01.932Z,14.23
2018-08-28T04:40:30.185Z,11.67
2018-08-28T04:42:58.306Z,12.90
2018-08-28T04:45:26.422Z,15.47
2018-08-28T04:47:54.538Z,13.33
2018-08-28T04:50:22.799Z,15.40
2018-08-28T04:52:50.906Z,11.70
2018-08-28T04:55:19.032Z,14.80
2018-08-28T04:57:47.170Z,14.10
2018-08-28T05:00:15.308Z,12.00
2018-08-28T05:02:43.399Z,17.43
2018-08-28T05:05:11.518Z,15.07
2018-08-28T05:07:39.746Z,14.40
2018-08-28T05:10:08.028Z,16.53
2018-08-28T05:12:36.123Z,21.53
2018-08-28T05:15:04.255Z,13.07
2018-08-28T05:17:32.353Z,11.33
2018-08-28T05:20:00.480Z,27.97
2018-08-28T05:22:28.653Z,13.03
2018-08-28T05:24:56.761Z,12.53
2018-08-28T05:27:24.878Z,20.60
2018-08-28T05:29:53.002Z,12.80
2018-08-28T05:32:21.122Z,15.47
2018-08-28T05:34:49.242Z,13.03
2018-08-28T05:37:17.449Z,16.63
2018-08-28T05:39:45.630Z,12.87
2018-08-28T05:42:13.742Z,14.93
2018-08-28T05:44:42.162Z,15.43
2018-08-28T05:47:10.279Z,16.10
2018-08-28T05:49:38.515Z,17.77
2018-08-28T05:52:06.614Z,15.00
2018-08-28T05:54:34.765Z,12.37
2018-08-28T05:57:02.941Z,13.43
2018-08-28T05:59:31.058Z,19.37
2018-08-28T06:01:59.166Z,20.30
2018-08-28T06:04:27.322Z,18.43
2018-08-28T06:06:55.443Z,16.37
2018-08-28T06:09:23.557Z,21.63
2018-08-28T06:11:51.667Z,13.33
2018-08-28T06:14:19.798Z,18.40
2018-08-28T06:16:48.340Z,18.77
2018-08-28T06:19:16.505Z,16.80
2018-08-28T06:21:44.634Z,19.50
2018-08-28T06:24:12.750Z,15.30
2018-08-28T06:26:40.889Z,16.10
2018-08-28T06:29:09.307Z,16.70
2018-08-28T06:31:37.430Z,13.87
2018-08-28T06:34:05.562Z,16.40
2018-08-28T06:36:33.671Z,12.83
2018-08-28T06:39:01.809Z,13.60
2018-08-28T06:41:30.094Z,15.17
2018-08-28T06:43:58.267Z,16.77
2018-08-28T06:46:26.323Z,15.30
2018-08-28T06:48:54.743Z,17.17
2018-08-28T06:51:22.878Z,18.53
2018-08-28T06:53:51.021Z,17.63
2018-08-28T06:56:19.157Z,17.90
2018-08-28T06:58:47.266Z,17.97
2018-08-28T07:01:15.395Z,20.60
2018-08-28T07:03:43.658Z,12.00
2018-08-28T07:06:11.690Z,23.57
2018-08-28T07:08:39.801Z,15.60
2018-08-28T07:11:07.946Z,17.37
2018-08-28T07:13:36.082Z,15.63
2018-08-28T07:16:04.206Z,14.80
2018-08-28T07:18:32.372Z,14.87
2018-08-28T07:21:00.480Z,12.87
2018-08-28T07:23:28.627Z,20.07
2018-08-28T07:25:56.781Z,16.20
2018-08-28T07:28:24.891Z,23.73
2018-08-28T07:30:53.018Z,17.47
2018-08-28T07:33:21.147Z,18.20
2018-08-28T07:35:49.270Z,14.40
2018-08-28T07:38:17.658Z,11.27
2018-08-28T07:40:45.770Z,21.20
2018-08-28T07:43:13.883Z,13.43
2018-08-28T07:45:42.006Z,14.33
2018-08-28T07:48:10.127Z,16.50
2018-08-28T07:50:38.255Z,10.10
2018-08-28T07:53:06.395Z,11.97
2018-08-28T07:55:34.538Z,17.23
2018-08-28T07:58:02.646Z,21.40
2018-08-28T08:00:30.766Z,15.00
2018-08-28T08:02:58.866Z,23.27
2018-08-28T08:05:26.991Z,14.90
2018-08-28T08:07:55.188Z,16.60
2018-08-28T08:10:23.418Z,17.93
2018-08-28T08:12:51.498Z,20.33
2018-08-28T08:15:19.607Z,23.07
2018-08-28T08:17:47.740Z,16.80
2018-08-28T08:20:15.870Z,17.17
2018-08-28T08:22:43.995Z,11.60
2018-08-28T08:25:12.107Z,9.50
2018-08-28T08:27:40.336Z,16.27
2018-08-28T08:30:08.659Z,15.27
2018-08-28T08:32:36.791Z,16.30
2018-08-28T08:35:04.898Z,21.77
2018-08-28T08:37:33.027Z,19.43
2018-08-28T08:40:01.154Z,14.50
2018-08-28T08:42:29.261Z,15.10
2018-08-28T08:44:57.402Z,14.70
2018-08-28T08:47:25.542Z,16.93
2018-08-28T08:49:53.723Z,15.63
2018-08-28T08:52:21.870Z,13.67
2018-08-28T08:54:50.028Z,14.30
2018-08-28T08:57:18.159Z,8.97
2018-08-28T08:59:46.320Z,14.07
2018-08-28T09:02:14.449Z,11.10
2018-08-28T09:04:42.572Z,11.10
2018-08-28T09:07:10.706Z,9.00
2018-08-28T09:09:39.020Z,7.67
2018-08-28T09:12:07.182Z,15.50
2018-08-28T09:14:35.253Z,10.13
2018-08-28T09:17:03.402Z,9.60
2018-08-28T09:19:31.511Z,14.97
2018-08-28T09:21:59.627Z,13.07
2018-08-28T09:24:27.996Z,11.60
2018-08-28T09:26:56.114Z,8.47
2018-08-28T09:29:24.240Z,10.53
2018-08-28T09:31:52.356Z,8.63
2018-08-28T09:34:20.519Z,13.10
2018-08-28T09:36:48.638Z,10.67
2018-08-28T09:39:16.970Z,13.40
2018-08-28T09:41:45.107Z,11.43
2018-08-28T09:44:13.226Z,12.63
2018-08-28T09:46:41.495Z,11.43
2018-08-28T09:49:09.606Z,11.80
2018-08-28T09:51:37.738Z,14.00
2018-08-28T09:54:06.622Z,8.53
2018-08-28T09:56:34.804Z,9.40
2018-08-28T09:59:02.882Z,8.83
2018-08-28T10:01:36.610Z,14.97
2018-08-28T10:04:04.715Z,7.73
2018-08-28T10:06:32.838Z,13.63
2018-08-28T10:09:03.659Z,8.90
2018-08-28T10:11:31.762Z,6.60
2018-08-28T10:13:59.865Z,9.80
2018-08-28T10:16:27.970Z,22.50
2018-08-28T10:18:56.103Z,28.83
2018-08-28T10:21:24.227Z,39.57
2018-08-28T10:23:52.342Z,39.70
2018-08-28T10:26:20.487Z,22.73
2018-08-28T10:28:48.791Z,12.63
2018-08-28T10:31:16.898Z,12.13
2018-08-28T10:33:45.025Z,19.70
2018-08-28T10:36:13.164Z,10.10
2018-08-28T10:38:41.311Z,8.13
2018-08-28T10:41:09.424Z,6.23
2018-08-28T10:43:37.546Z,7.93
2018-08-28T10:46:06.082Z,12.63
2018-08-28T10:48:34.107Z,14.63
2018-08-28T10:51:02.239Z,8.40
2018-08-28T10:53:30.359Z,11.17
2018-08-28T10:55:58.486Z,10.27
2018-08-28T10:58:26.644Z,11.73
2018-08-28T11:00:54.767Z,8.17
2018-08-28T11:03:23.195Z,18.00
2018-08-28T11:05:51.453Z,8.53
2018-08-28T11:08:19.586Z,9.90
2018-08-28T11:10:47.710Z,12.67
2018-08-28T11:13:15.826Z,8.80
2018-08-28T11:15:43.945Z,10.60
2018-08-28T11:18:12.086Z,8.17
2018-08-28T11:20:40.245Z,16.63
2018-08-28T11:23:08.367Z,9.77
2018-08-28T11:25:36.494Z,7.50
2018-08-28T11:28:04.608Z,8.37
2018-08-28T11:30:32.727Z,6.00
2018-08-28T11:33:00.854Z,9.67
2018-08-28T11:35:28.970Z,5.23
2018-08-28T11:37:57.106Z,11.90
2018-08-28T11:40:25.202Z,9.37
2018-08-28T11:42:53.331Z,7.23
2018-08-28T11:45:21.447Z,11.60
2018-08-28T11:47:49.575Z,11.30
2018-08-28T11:50:17.675Z,8.50
2018-08-28T11:52:48.746Z,8.73
2018-08-28T11:55:16.858Z,8.77
2018-08-28T11:57:44.963Z,8.00
2018-08-28T12:00:14.027Z,10.97
2018-08-28T12:02:42.157Z,7.70
2018-08-28T12:05:10.349Z,6.20
2018-08-28T12:07:38.457Z,8.70
2018-08-28T12:10:07.499Z,8.87
2018-08-28T12:12:35.614Z,10.50
2018-08-28T12:15:03.737Z,9.43
2018-08-28T12:17:31.848Z,7.90
2018-08-28T12:19:59.957Z,9.07
2018-08-28T12:22:28.074Z,7.50
2018-08-28T12:24:56.190Z,5.90
2018-08-28T12:27:24.303Z,9.90
2018-08-28T12:29:52.424Z,8.37
2018-08-28T12:32:20.525Z,7.10
2018-08-28T12:34:48.633Z,8.77
2018-08-28T12:37:16.739Z,9.23
2018-08-28T12:39:44.834Z,9.03
2018-08-28T12:42:12.947Z,7.17
2018-08-28T12:44:41.059Z,6.90
2018-08-28T12:47:09.165Z,8.77
2018-08-28T12:49:37.270Z,7.40
2018-08-28T12:52:05.510Z,6.03
2018-08-28T12:54:33.627Z,8.43
2018-08-28T12:57:01.743Z,5.73
2018-08-28T12:59:29.868Z,6.90
2018-08-28T13:01:57.971Z,7.63
2018-08-28T13:04:26.658Z,12.03
2018-08-28T13:06:54.762Z,7.33
2018-08-28T13:09:22.911Z,12.30
2018-08-28T13:11:51.032Z,7.70
2018-08-28T13:14:19.384Z,8.80
2018-08-28T13:16:47.506Z,11.00
2018-08-28T13:19:15.614Z,8.50
2018-08-28T13:21:43.739Z,7.13
2018-08-28T13:24:12.228Z,8.70
2018-08-28T13:26:40.330Z,7.73
2018-08-28T13:29:08.459Z,8.33
2018-08-28T13:31:36.554Z,8.63
2018-08-28T13:34:04.671Z,8.90
2018-08-28T13:36:32.816Z,7.40
2018-08-28T13:39:00.965Z,5.83
2018-08-28T13:41:29.142Z,7.20
2018-08-28T13:43:57.445Z,8.57
2018-08-28T13:46:25.538Z,6.23
2018-08-28T13:48:53.649Z,8.00
2018-08-28T13:51:21.798Z,10.40
2018-08-28T13:53:50.016Z,7.33
2018-08-28T13:56:18.022Z,12.63
2018-08-28T13:58:46.209Z,8.53
2018-08-28T14:01:14.310Z,8.60
2018-08-28T14:03:42.414Z,9.00
2018-08-28T14:06:10.530Z,9.27
2018-08-28T14:08:38.621Z,14.73
2018-08-28T14:11:06.771Z,8.10
2018-08-28T14:13:34.879Z,9.90
2018-08-28T14:16:03.014Z,9.13
2018-08-28T14:18:31.118Z,11.10
2018-08-28T14:20:59.242Z,10.23
2018-08-28T14:23:27.392Z,8.80
2018-08-28T14:25:55.490Z,9.50
2018-08-28T14:28:23.627Z,8.13
2018-08-28T14:30:51.735Z,9.20
2018-08-28T14:33:19.841Z,10.50
2018-08-28T14:35:48.289Z,11.03
2018-08-28T14:38:16.310Z,7.87
2018-08-28T14:40:44.432Z,7.43
2018-08-28T14:43:12.562Z,12.00
2018-08-28T14:45:40.685Z,6.57
2018-08-28T14:48:08.795Z,8.17
2018-08-28T14:50:36.949Z,8.03
2018-08-28T14:53:05.062Z,7.57
2018-08-28T14:55:33.177Z,7.03
2018-08-28T14:58:01.293Z,9.13
2018-08-28T15:00:29.578Z,8.87
2018-08-28T15:02:57.674Z,9.57
2018-08-28T15:05:25.786Z,9.57
2018-08-28T15:07:53.999Z,5.90
2018-08-28T15:10:22.130Z,10.37
2018-08-28T15:12:50.289Z,9.23
2018-08-28T15:15:18.418Z,8.07
2018-08-28T15:17:46.539Z,9.10
2018-08-28T15:20:14.646Z,8.53
2018-08-28T15:22:42.770Z,7.70
2018-08-28T15:25:10.898Z,8.23
2018-08-28T15:27:39.068Z,7.90
2018-08-28T15:30:07.129Z,8.30
2018-08-28T15:32:35.430Z,11.03
2018-08-28T15:35:03.538Z,20.30
2018-08-28T15:37:31.651Z,9.97
2018-08-28T15:39:59.767Z,13.00
2018-08-28T15:42:27.870Z,9.97
2018-08-28T15:44:56.011Z,28.20
2018-08-28T15:47:24.135Z,18.77
2018-08-28T15:49:52.253Z,19.90
2018-08-28T15:52:20.378Z,12.10
2018-08-28T15:54:48.489Z,13.20
2018-08-28T15:57:16.699Z,8.40
2018-08-28T15:59:44.824Z,7.57
2018-08-28T16:02:12.957Z,10.50
2018-08-28T16:04:41.113Z,11.77
2018-08-28T16:07:09.219Z,8.73
2018-08-28T16:09:37.338Z,10.20
2018-08-28T16:12:05.452Z,9.03
2018-08-28T16:14:33.565Z,8.80
2018-08-28T16:17:01.718Z,11.20
2018-08-28T16:19:29.833Z,8.13
2018-08-28T16:21:59.662Z,7.80
2018-08-28T16:24:27.783Z,8.90
2018-08-28T16:26:55.955Z,9.30
2018-08-28T16:29:24.050Z,7.10
2018-08-28T16:31:52.375Z,8.90
2018-08-28T16:34:20.483Z,7.77
2018-08-28T16:36:48.664Z,10.30
2018-08-28T16:39:16.821Z,8.20
2018-08-28T16:41:44.930Z,6.83
2018-08-28T16:44:19.554Z,7.73
2018-08-28T16:46:47.675Z,9.60
2018-08-28T16:49:15.762Z,6.60
2018-08-28T16:51:43.973Z,8.13
2018-08-28T16:54:12.057Z,6.37
2018-08-28T16:56:40.170Z,8.37
2018-08-28T16:59:08.283Z,7.10
2018-08-28T17:01:36.455Z,7.03
2018-08-28T17:04:04.522Z,8.10
2018-08-28T17:06:32.635Z,9.17
2018-08-28T17:09:00.809Z,7.63
2018-08-28T17:11:28.908Z,8.30
2018-08-28T17:13:57.019Z,7.70
2018-08-28T17:16:25.156Z,10.13
2018-08-28T17:18:53.370Z,7.90
2018-08-28T17:21:21.490Z,6.53
2018-08-28T17:23:49.598Z,7.90
2018-08-28T17:26:17.711Z,5.90
2018-08-28T17:28:45.822Z,7.63
2018-08-28T17:31:13.967Z,10.00
2018-08-28T17:33:42.098Z,6.60
2018-08-28T17:36:10.205Z,8.23
2018-08-28T17:38:38.345Z,8.50
2018-08-28T17:41:06.494Z,8.30
2018-08-28T17:43:34.607Z,7.57
2018-08-28T17:46:02.730Z,8.57
2018-08-28T17:48:30.846Z,8.20
2018-08-28T17:50:58.978Z,7.00
2018-08-28T17:53:27.190Z,8.50
2018-08-28T17:55:55.282Z,9.37
2018-08-28T17:58:23.419Z,9.60
2018-08-28T18:00:51.534Z,8.63
2018-08-28T18:03:19.697Z,11.93
2018-08-28T18:05:47.877Z,10.30
2018-08-28T18:08:15.980Z,11.70
2018-08-28T18:10:44.170Z,7.90
2018-08-28T18:13:12.282Z,7.83
2018-08-28T18:15:40.437Z,9.30
2018-08-28T18:18:08.586Z,10.70
2018-08-28T18:20:36.702Z,10.47
2018-08-28T18:23:05.042Z,9.07
2018-08-28T18:25:33.183Z,11.67
2018-08-28T18:28:01.372Z,10.10
2018-08-28T18:30:29.475Z,12.30
2018-08-28T18:32:57.620Z,9.63
2018-08-28T18:35:25.755Z,8.90
2018-08-28T18:37:53.875Z,8.27
2018-08-28T18:40:22.057Z,10.37
2018-08-28T18:42:50.177Z,10.60
2018-08-28T18:45:18.402Z,11.63
2018-08-28T18:47:46.554Z,12.53
2018-08-28T18:50:14.682Z,10.17
2018-08-28T18:52:42.806Z,10.07
2018-08-28T18:55:10.927Z,8.87
2018-08-28T18:57:39.075Z,12.67
2018-08-28T19:00:08.112Z,14.60
2018-08-28T19:02:36.289Z,14.10
2018-08-28T19:05:04.367Z,12.30
2018-08-28T19:07:32.579Z,11.20
2018-08-28T19:10:00.654Z,12.67
2018-08-28T19:12:28.794Z,12.20
2018-08-28T19:14:56.910Z,14.30
2018-08-28T19:17:25.042Z,12.30
2018-08-28T19:19:53.182Z,13.50
2018-08-28T19:22:21.331Z,12.50
2018-08-28T19:24:49.446Z,10.90
2018-08-28T19:27:17.553Z,13.77
2018-08-28T19:29:45.670Z,15.77
2018-08-28T19:32:13.793Z,17.20
2018-08-28T19:34:41.913Z,12.37
2018-08-28T19:37:10.038Z,13.20
2018-08-28T19:39:38.161Z,12.97
2018-08-28T19:42:06.274Z,13.47
2018-08-28T19:44:34.392Z,12.93
2018-08-28T19:47:02.531Z,12.23
2018-08-28T19:49:30.694Z,14.60
2018-08-28T19:51:58.809Z,12.40
2018-08-28T19:54:26.927Z,12.93
2018-08-28T19:56:55.125Z,14.33
2018-08-28T19:59:23.182Z,13.60
2018-08-28T20:01:51.314Z,14.90
2018-08-28T20:04:19.511Z,13.17
2018-08-28T20:06:47.676Z,11.53
2018-08-28T20:09:15.775Z,11.80
2018-08-28T20:11:43.917Z,12.23
2018-08-28T20:14:12.015Z,13.37
2018-08-28T20:16:40.131Z,13.47
2018-08-28T20:19:08.263Z,12.67
2018-08-28T20:21:36.556Z,13.07
2018-08-28T20:24:05.022Z,14.50
2018-08-28T20:26:33.193Z,14.97
2018-08-28T20:29:01.395Z,11.20
2018-08-28T20:31:29.531Z,14.23
2018-08-28T20:33:57.695Z,14.17
2018-08-28T20:36:25.863Z,13.20
2018-08-28T20:38:53.993Z,14.07
2018-08-28T20:41:22.170Z,15.40
2018-08-28T20:43:50.309Z,18.73
2018-08-28T20:46:18.439Z,12.30
2018-08-28T20:48:48.286Z,13.47
2018-08-28T20:51:18.624Z,14.60
2018-08-28T20:53:54.750Z,13.60
2018-08-28T20:56:29.262Z,14.50
2018-08-28T20:59:10.223Z,16.40
2018-08-28T21:03:53.817Z,13.60
2018-08-28T21:06:31.126Z,15.13
2018-08-28T21:09:03.009Z,12.53
2018-08-28T21:11:44.685Z,14.60
2018-08-28T21:14:18.662Z,13.57
2018-08-28T21:16:52.443Z,12.93
2018-08-28T21:23:45.648Z,12.80
2018-08-28T21:26:13.797Z,13.30
2018-08-28T21:28:41.921Z,16.57
2018-08-28T21:31:10.093Z,16.00
2018-08-28T21:33:38.608Z,15.00
2018-08-28T21:36:06.723Z,18.90
2018-08-28T21:38:34.848Z,12.90
2018-08-28T21:41:03.769Z,18.90
2018-08-28T21:43:31.919Z,14.13
2018-08-28T21:46:00.031Z,14.17
2018-08-28T21:48:28.162Z,15.87
2018-08-28T21:50:56.563Z,15.30
2018-08-28T21:53:24.915Z,13.70
2018-08-28T21:55:53.029Z,12.57
2018-08-28T21:58:21.177Z,13.70
2018-08-28T22:01:22.946Z,16.27
2018-08-28T22:03:51.058Z,16.20
2018-08-28T22:06:24.564Z,17.10
2018-08-28T22:08:52.665Z,17.60
2018-08-28T22:11:20.791Z,13.50
2018-08-28T22:13:48.905Z,15.47
2018-08-28T22:16:17.102Z,13.80
2018-08-28T22:18:45.215Z,15.13
2018-08-28T22:21:13.313Z,18.07
2018-08-28T22:23:41.429Z,16.80
2018-08-28T22:26:09.537Z,16.60
2018-08-28T22:28:37.658Z,16.70
2018-08-28T22:31:05.830Z,13.97
2018-08-28T22:33:33.926Z,14.37
2018-08-28T22:36:02.215Z,16.47
2018-08-28T22:38:30.393Z,15.10
2018-08-28T22:40:58.508Z,18.80
2018-08-28T22:43:26.621Z,14.67
2018-08-28T22:45:54.729Z,15.60
2018-08-28T22:48:22.871Z,15.83
2018-08-28T22:50:50.986Z,15.97
2018-08-28T22:53:19.105Z,14.80
2018-08-28T22:55:47.209Z,20.53
2018-08-28T22:58:15.326Z,14.73
2018-08-28T23:00:43.446Z,14.97
2018-08-28T23:03:11.554Z,15.93
2018-08-28T23:05:39.705Z,18.53
2018-08-28T23:08:07.818Z,20.33
2018-08-28T23:10:35.937Z,14.30
2018-08-28T23:13:04.043Z,16.67
2018-08-28T23:15:32.190Z,15.57
2018-08-28T23:18:00.301Z,17.53
2018-08-28T23:20:28.418Z,20.27
2018-08-28T23:22:56.534Z,24.40
2018-08-28T23:25:24.679Z,16.67
2018-08-28T23:27:52.791Z,18.97
2018-08-28T23:30:20.914Z,17.53
2018-08-28T23:32:49.050Z,17.10
2018-08-28T23:35:17.264Z,19.57
2018-08-28T23:37:45.402Z,17.93
2018-08-28T23:40:13.522Z,24.53
2018-08-28T23:42:41.646Z,22.60
2018-08-28T23:45:09.761Z,19.17
2018-08-28T23:47:37.874Z,20.33
2018-08-28T23:50:06.056Z,20.23
2018-08-28T23:52:34.173Z,17.70
2018-08-28T23:55:02.818Z,19.23
2018-08-28T23:57:30.938Z,17.63
2018-08-28T23:59:59.050Z,18.70
